Florence, MT

4:16 PM MDT on August 20, 2014 (GMT -0600)
Bitterroot Valley | Change Station
CLOSE
Current Station
Personal Weather Station
Location: Florence, MT
Elevation: 3182 ft
Nearby Weather Stations

Elev 3182 ft 46.69 °N, 114.06 °W | Updated 43 seconds ago

Clear
Clear
73.3 °F
Feels Like 77 °F
N
6.0
Wind Variable Wind from East
Gusts 12.0 mph

Today
High -- | Low -- °F
--% Chance of Precip.
Yesterday
High -- | Low -- °F
Precip. -- in
6:40 AM 8:37 PM
Waning Crescent, 19% visible
Pressure 29.81 in
Visibility 10.0 miles
Clouds Clear
Heat Index 77 °F
Dew Point 54 °F
Humidity 50%
Rainfall 0.02 in
Snow Depth Not available.
UV 7 out of 12
Pollen 7.30 out of 12
Air Quality Not available.
Flu Activity Not available.
METAR KMSO 202153Z 32006KT 10SM CLR 24/10 A2986 RMK AO2 SLP094 T02390100

More Conditions Fewer Conditions

Pressure 29.81 in
Visibility 10.0 miles
Clouds Clear
Heat Index 77 °F
Dew Point 54 °F
Humidity 50%
Rainfall 0.02 in
Snow Depth Not available.
UV 7 out of 12
Pollen 7.30 out of 12
Air Quality Not available.
Flu Activity Not available.
METAR KMSO 202153Z 32006KT 10SM CLR 24/10 A2986 RMK AO2 SLP094 T02390100

More Conditions Fewer Conditions

10-Day Weather Forecast

Almanac

Astronomy

Aug. 20, 2014 Rise Set
Actual Time 6:40 AM MDT 8:37 PM MDT
Civil Twilight 6:08 AM MDT 9:09 PM MDT
Nautical Twilight 5:28 AM MDT 9:49 PM MDT
Astronomical Twilight 4:44 AM MDT 10:33 PM MDT
Moon 2:17 AM MDT 5:31 PM MDT
Length of Visible Light 15h 01m
Length of Day
13h 56m
Tomorrow will be 3m 3s shorter.
Waning Crescent, 19% of the Moon is Illuminated
Today
Waning Crescent
Aug 25
New
Sep 2
First Quarter
Sep 8
Full
Sep 15
Last Quarter

Today's Extremes

State Highs State Lows

Community

WunderPhotos

Upload Photos

1,745,773 photos uploaded!

Nearby

Snow Depth

Station Depth Elevation
Daly Creek 2 in 5780 ft
North Fork Jocko 0 in 6330 ft
Peterson Meadows 0 in 7200 ft
Kraft Creek 0 in 4750 ft
Barker Lakes 0 in 8250 ft

Earthquake Activity

City Distance Mag. Time & Date
No recent earthquake activity has been reported nearby.
Minimum magnitude displayed is 2.5.

Coastal Water Temperatures

Place Temperature
No Stations Reporting

Nearby Weather Stations